Time;durP1;ratioP1;P1;durP2;ratioP2;P2;SDS_P1;SDS_P2;PMS_P1;PMS_P2;Temp;Humidity;BMP_temperature;BMP_pressure;BME280_temperature;BME280_humidity;BME280_pressure;Samples;Min_cycle;Max_cycle;Signal;HPM_P1;HPM_P2
2021/03/16 00:02:08;;;;;;;13.07;2.97;;;5.60;99.90;;;;;;5095141;28;20248;-68
2021/03/16 00:04:33;;;;;;;12.13;2.60;;;5.40;99.90;;;;;;5095644;28;20229;-68
2021/03/16 00:07:03;;;;;;;10.40;2.43;;;5.30;99.90;;;;;;5095096;28;20256;-68
2021/03/16 00:09:29;;;;;;;14.38;4.20;;;5.20;1.00;;;;;;5095305;28;20239;-68
2021/03/16 00:11:54;;;;;;;7.00;3.60;;;5.40;99.90;;;;;;5095031;28;20206;-69
2021/03/16 00:14:20;;;;;;;14.53;3.87;;;5.60;1.00;;;;;;5094936;28;20577;-68
2021/03/16 00:16:45;;;;;;;15.50;6.00;;;5.50;99.90;;;;;;5094873;28;20220;-69
2021/03/16 00:19:11;;;;;;;13.00;5.00;;;5.70;99.90;;;;;;5095200;28;20163;-68
2021/03/16 00:21:36;;;;;;;16.13;3.97;;;5.70;99.90;;;;;;5094814;28;20191;-68
2021/03/16 00:24:02;;;;;;;10.10;4.90;;;5.50;99.90;;;;;;5094774;28;20177;-69
2021/03/16 00:26:27;;;;;;;5.97;3.90;;;5.50;99.90;;;;;;5095174;28;20168;-69
2021/03/16 00:28:53;;;;;;;14.10;5.50;;;5.50;99.90;;;;;;5094636;28;20160;-69
2021/03/16 00:31:18;;;;;;;22.90;5.57;;;5.40;99.90;;;;;;5094594;28;20191;-69
2021/03/16 00:33:44;;;;;;;14.83;5.23;;;5.20;1.00;;;;;;5094835;28;20163;-69
2021/03/16 00:36:10;;;;;;;23.80;5.20;;;5.50;61.30;;;;;;5094807;28;20246;-68
2021/03/16 00:38:35;;;;;;;20.17;5.27;;;5.70;95.80;;;;;;5094414;28;20167;-69
2021/03/16 00:41:01;;;;;;;10.50;4.97;;;5.50;75.10;;;;;;5094457;28;20168;-69
2021/03/16 00:43:27;;;;;;;12.77;4.87;;;5.70;1.00;;;;;;5094313;28;20191;-69
2021/03/16 00:45:53;;;;;;;18.42;6.22;;;5.70;99.90;;;;;;5094307;28;20199;-69
2021/03/16 00:48:18;;;;;;;17.93;4.80;;;5.90;99.90;;;;;;5094216;28;20234;-69
2021/03/16 00:50:44;;;;;;;21.77;5.63;;;5.80;99.90;;;;;;5092985;28;20167;-69
2021/03/16 00:53:11;;;;;;;17.37;6.90;;;5.60;99.90;;;;;;5094307;28;20425;-69
2021/03/16 00:55:37;;;;;;;15.95;5.95;;;5.60;1.00;;;;;;5094251;28;20372;-69
2021/03/16 00:58:03;;;;;;;19.08;5.40;;;5.60;1.00;;;;;;5094935;28;20172;-69
2021/03/16 01:00:29;;;;;;;13.82;4.43;;;5.50;1.00;;;;;;5094408;28;20244;-69
2021/03/16 01:02:55;;;;;;;19.67;4.63;;;5.50;27.80;;;;;;5094860;28;20195;-69
2021/03/16 01:05:21;;;;;;;33.83;4.60;;;5.60;99.90;;;;;;5094034;28;20479;-69
2021/03/16 01:07:46;;;;;;;12.43;3.37;;;5.60;99.90;;;;;;5093843;28;20285;-69
2021/03/16 01:10:17;;;;;;;13.37;3.27;;;5.60;99.90;;;;;;5093927;28;20416;-69
2021/03/16 01:12:43;;;;;;;27.85;4.18;;;5.40;99.90;;;;;;5093896;28;20614;-69
2021/03/16 01:15:10;;;;;;;13.23;3.20;;;5.60;1.00;;;;;;5093721;28;20247;-69
2021/03/16 01:17:36;;;;;;;14.07;3.75;;;5.80;99.90;;;;;;5093711;28;20718;-69
2021/03/16 01:20:24;;;;;;;17.58;6.05;;;5.90;99.90;;;;;;5093667;28;20643;-69
2021/03/16 01:22:49;;;;;;;18.40;3.17;;;5.70;1.00;;;;;;5092991;28;20207;-69
2021/03/16 01:25:15;;;;;;;22.70;3.70;;;5.70;9.60;;;;;;5093541;28;20209;-69
2021/03/16 01:27:40;;;;;;;16.63;4.30;;;5.70;99.90;;;;;;5093713;28;20225;-69
2021/03/16 01:30:08;;;;;;;12.07;3.17;;;5.70;1.00;;;;;;5093972;28;20558;-69
2021/03/16 01:32:34;;;;;;;18.73;3.25;;;5.60;9.90;;;;;;5093167;28;20240;-69
2021/03/16 01:35:01;;;;;;;16.00;3.55;;;5.60;1.00;;;;;;5093448;28;20209;-69
2021/03/16 01:37:28;;;;;;;20.23;4.35;;;5.50;1.00;;;;;;5093408;28;20167;-69
2021/03/16 01:39:53;;;;;;;22.20;3.67;;;5.60;1.00;;;;;;5093340;28;20167;-68
2021/03/16 01:42:19;;;;;;;21.90;3.93;;;5.60;1.00;;;;;;5093485;28;20198;-69
2021/03/16 01:44:45;;;;;;;18.53;3.57;;;5.70;1.00;;;;;;5093287;28;20171;-69
2021/03/16 01:47:12;;;;;;;15.10;4.20;;;5.80;99.90;;;;;;5093098;28;20191;-69
2021/03/16 01:49:38;;;;;;;17.52;3.22;;;5.80;99.90;;;;;;5091899;28;20174;-69
2021/03/16 01:52:05;;;;;;;14.88;3.33;;;5.80;99.90;;;;;;5093079;28;20183;-69
2021/03/16 01:54:31;;;;;;;14.55;2.97;;;5.70;99.90;;;;;;5093179;28;20240;-69
2021/03/16 01:57:00;;;;;;;19.43;4.97;;;5.80;99.90;;;;;;5093382;28;20643;-69
2021/03/16 01:59:27;;;;;;;20.73;4.85;;;5.70;99.90;;;;;;5093308;28;20627;-69
2021/03/16 02:01:52;;;;;;;12.73;2.95;;;6.00;99.90;;;;;;5093284;28;20195;-69
2021/03/16 02:04:18;;;;;;;20.80;3.40;;;6.00;29.50;;;;;;5093080;28;20170;-69
2021/03/16 02:07:02;;;;;;;19.90;3.67;;;6.00;44.10;;;;;;5092900;28;20572;-69
2021/03/16 02:09:43;;;;;;;19.58;3.55;;;5.80;1.00;;;;;;5093311;28;20230;-69
2021/03/16 02:12:17;;;;;;;12.95;3.35;;;5.80;1.00;;;;;;5093595;28;20179;-69
2021/03/16 02:14:48;;;;;;;23.55;4.63;;;5.80;1.00;;;;;;5097502;28;20155;-69
2021/03/16 02:17:20;;;;;;;18.05;3.75;;;5.70;1.00;;;;;;5097384;28;20242;-69
2021/03/16 02:20:06;;;;;;;22.95;4.40;;;5.60;18.80;;;;;;5097162;28;20506;-69
2021/03/16 02:22:34;;;;;;;18.70;2.95;;;5.80;86.10;;;;;;5097032;28;20291;-69
2021/03/16 02:25:33;;;;;;;9.30;3.38;;;5.70;1.00;;;;;;5097583;28;20513;-69
2021/03/16 02:28:05;;;;;;;36.05;5.00;;;5.60;1.00;;;;;;5097160;28;20183;-69
2021/03/16 02:30:31;;;;;;;14.13;3.92;;;5.60;1.00;;;;;;5096865;28;20167;-69
2021/03/16 02:32:59;;;;;;;17.85;3.00;;;5.60;1.00;;;;;;5097050;28;20274;-69
2021/03/16 02:35:26;;;;;;;21.15;3.00;;;5.70;1.00;;;;;;5096752;28;20173;-69
2021/03/16 02:37:54;;;;;;;17.48;4.03;;;5.70;1.00;;;;;;5096756;28;20297;-69
2021/03/16 02:40:22;;;;;;;25.75;4.22;;;5.70;1.00;;;;;;5096945;28;20258;-69
2021/03/16 02:42:48;;;;;;;15.20;3.15;;;5.60;1.00;;;;;;5096899;28;20529;-69
2021/03/16 02:45:14;;;;;;;12.55;2.45;;;5.60;1.00;;;;;;5096639;28;20173;-69
2021/03/16 02:47:41;;;;;;;10.07;2.95;;;5.50;1.00;;;;;;5096667;28;20195;-69
2021/03/16 02:50:08;;;;;;;13.13;3.35;;;5.60;1.00;;;;;;5096554;28;20170;-68
2021/03/16 02:52:36;;;;;;;21.15;4.40;;;5.60;1.00;;;;;;5096399;28;20218;-69
2021/03/16 02:55:03;;;;;;;17.63;4.47;;;5.60;1.00;;;;;;5096577;28;20171;-69
2021/03/16 02:57:30;;;;;;;17.08;3.55;;;5.60;78.00;;;;;;5096689;28;20717;-69
2021/03/16 02:59:59;;;;;;;17.00;4.93;;;5.80;1.00;;;;;;5096402;28;20525;-69
2021/03/16 03:02:26;;;;;;;23.52;4.35;;;5.60;1.00;;;;;;5097308;28;20210;-69
2021/03/16 03:04:52;;;;;;;24.20;4.68;;;5.50;68.00;;;;;;5096522;28;20638;-69
2021/03/16 03:07:19;;;;;;;18.30;4.30;;;5.40;99.90;;;;;;5096134;28;20297;-69
2021/03/16 03:09:45;;;;;;;9.02;2.60;;;5.80;1.00;;;;;;5096245;28;20475;-69
2021/03/16 03:12:11;;;;;;;17.83;3.78;;;5.60;99.90;;;;;;5096129;28;20221;-68
2021/03/16 03:14:38;;;;;;;12.90;3.80;;;5.60;8.40;;;;;;5096189;28;20171;-69
2021/03/16 03:17:04;;;;;;;9.85;2.75;;;5.70;1.00;;;;;;5095941;28;20174;-67
2021/03/16 03:19:31;;;;;;;22.00;3.25;;;5.70;1.00;;;;;;5095951;28;20167;-69
2021/03/16 03:22:15;;;;;;;14.98;3.00;;;5.90;99.90;;;;;;5095905;28;20187;-69
2021/03/16 03:24:48;;;;;;;20.15;4.65;;;5.90;1.00;;;;;;5095235;28;20171;-69
2021/03/16 03:27:22;;;;;;;18.13;4.60;;;5.90;77.90;;;;;;5096422;28;20191;-69
2021/03/16 03:29:49;;;;;;;10.88;3.42;;;5.90;1.00;;;;;;5096239;28;20507;-69
2021/03/16 03:32:17;;;;;;;11.57;3.25;;;5.70;1.00;;;;;;5095691;28;20198;-69
2021/03/16 03:34:45;;;;;;;8.55;3.08;;;5.50;1.00;;;;;;5095702;28;20172;-69
2021/03/16 03:37:12;;;;;;;18.90;3.25;;;5.60;21.30;;;;;;5095699;28;20277;-69
2021/03/16 03:39:38;;;;;;;10.90;2.83;;;5.60;1.00;;;;;;5095698;28;20187;-69
2021/03/16 03:42:06;;;;;;;15.27;3.35;;;5.40;1.00;;;;;;5095579;28;20266;-69
2021/03/16 03:44:34;;;;;;;16.38;3.60;;;5.60;23.20;;;;;;5095571;28;20174;-69
2021/03/16 03:47:02;;;;;;;11.52;2.95;;;5.40;1.00;;;;;;5095475;28;20245;-69
2021/03/16 03:49:28;;;;;;;14.90;3.03;;;5.50;1.00;;;;;;5095546;28;20301;-69
2021/03/16 03:51:56;;;;;;;9.68;2.38;;;5.80;1.00;;;;;;5095341;28;20194;-69
2021/03/16 03:54:22;;;;;;;16.08;3.00;;;5.60;1.00;;;;;;5095383;28;20168;-69
2021/03/16 03:56:49;;;;;;;16.58;2.63;;;5.80;1.00;;;;;;5095270;28;20168;-69
2021/03/16 03:59:16;;;;;;;12.82;3.13;;;5.50;99.90;;;;;;5095595;28;20501;-69
2021/03/16 04:01:42;;;;;;;9.52;2.80;;;5.40;1.00;;;;;;5095209;28;20640;-68
2021/03/16 04:04:08;;;;;;;8.15;2.17;;;5.50;99.90;;;;;;5095451;28;20172;-68
2021/03/16 04:06:34;;;;;;;14.50;3.33;;;5.60;99.90;;;;;;5094880;28;20571;-69
2021/03/16 04:08:59;;;;;;;14.55;2.83;;;5.70;99.90;;;;;;5095110;28;20162;-68
2021/03/16 04:11:26;;;;;;;9.53;3.30;;;5.70;99.90;;;;;;5095186;28;20166;-69
2021/03/16 04:13:52;;;;;;;10.25;2.92;;;5.70;99.90;;;;;;5095023;28;20654;-68
2021/03/16 04:16:19;;;;;;;16.45;2.55;;;5.50;99.90;;;;;;5094932;28;20536;-69
2021/03/16 04:18:45;;;;;;;16.13;2.17;;;5.60;99.90;;;;;;5094915;28;20259;-68
2021/03/16 04:21:13;;;;;;;18.50;2.67;;;5.50;99.90;;;;;;5095055;28;20167;-68
2021/03/16 04:23:39;;;;;;;10.88;2.70;;;5.40;99.90;;;;;;5094879;28;20695;-68
2021/03/16 04:26:04;;;;;;;13.10;3.03;;;5.40;99.90;;;;;;5094707;28;20537;-69
2021/03/16 04:28:30;;;;;;;19.47;2.90;;;5.70;99.90;;;;;;5094620;28;20195;-67
2021/03/16 04:30:55;;;;;;;13.50;3.10;;;5.70;99.90;;;;;;5094596;28;20531;-68
2021/03/16 04:33:21;;;;;;;16.30;2.70;;;5.80;99.90;;;;;;5094575;28;20214;-68
2021/03/16 04:35:47;;;;;;;27.23;3.77;;;5.80;99.90;;;;;;5093482;28;20640;-68
2021/03/16 04:38:14;;;;;;;21.25;3.85;;;5.80;99.90;;;;;;5094505;28;20536;-69
2021/03/16 04:40:40;;;;;;;12.18;2.88;;;5.70;99.90;;;;;;5094511;28;20195;-68
2021/03/16 04:43:07;;;;;;;13.27;2.70;;;5.70;99.90;;;;;;5094399;28;20286;-68
2021/03/16 04:45:33;;;;;;;11.55;2.00;;;5.70;99.90;;;;;;5094641;28;20175;-68
2021/03/16 04:47:58;;;;;;;12.73;2.33;;;5.80;99.90;;;;;;5094272;28;20201;-68
2021/03/16 04:50:24;;;;;;;15.97;3.30;;;5.60;99.90;;;;;;5094263;28;20164;-68
2021/03/16 04:52:50;;;;;;;15.20;3.50;;;5.60;99.90;;;;;;5094125;28;20229;-68
2021/03/16 04:55:16;;;;;;;16.42;3.30;;;5.70;99.90;;;;;;5094470;28;20398;-69
2021/03/16 04:57:41;;;;;;;12.10;2.93;;;5.60;99.90;;;;;;5094142;28;20582;-68
2021/03/16 05:00:08;;;;;;;10.20;2.60;;;5.60;99.90;;;;;;5094112;28;20175;-68
2021/03/16 05:02:33;;;;;;;7.38;3.30;;;5.50;99.90;;;;;;5093981;28;20193;-68
2021/03/16 05:04:59;;;;;;;9.53;3.00;;;5.60;99.90;;;;;;5094268;28;20591;-68
2021/03/16 05:07:24;;;;;;;9.90;2.17;;;5.70;99.90;;;;;;5093790;28;20203;-68
2021/03/16 05:09:50;;;;;;;8.23;2.67;;;5.90;99.90;;;;;;5093879;28;20166;-69
2021/03/16 05:12:16;;;;;;;13.23;1.90;;;5.90;99.90;;;;;;5093676;28;20529;-68
2021/03/16 05:14:41;;;;;;;15.10;2.60;;;5.80;99.90;;;;;;5094072;28;20592;-68
2021/03/16 05:17:07;;;;;;;13.33;2.30;;;5.70;99.90;;;;;;5094013;28;20171;-68
2021/03/16 05:19:32;;;;;;;16.50;2.83;;;5.60;99.90;;;;;;5094286;28;20224;-68
2021/03/16 05:21:58;;;;;;;9.40;1.97;;;5.60;99.90;;;;;;5094091;28;20202;-68
2021/03/16 05:24:23;;;;;;;8.80;2.17;;;5.60;99.90;;;;;;5094512;28;20178;-69
2021/03/16 05:26:49;;;;;;;18.57;2.00;;;5.80;99.90;;;;;;5094557;28;20227;-69
2021/03/16 05:29:15;;;;;;;12.90;2.80;;;5.70;99.90;;;;;;5093607;28;20198;-69
2021/03/16 05:31:41;;;;;;;8.57;1.90;;;5.60;99.90;;;;;;5093461;28;20560;-69
2021/03/16 05:34:07;;;;;;;9.43;2.03;;;5.60;99.90;;;;;;5093431;28;20384;-69
2021/03/16 05:36:32;;;;;;;9.27;2.13;;;5.70;99.90;;;;;;5093798;28;20228;-69
2021/03/16 05:38:59;;;;;;;15.73;3.40;;;6.00;99.90;;;;;;5093485;28;20174;-69
2021/03/16 05:41:25;;;;;;;11.75;2.67;;;6.10;99.90;;;;;;5093265;28;20693;-69
2021/03/16 05:43:50;;;;;;;15.68;4.18;;;5.90;99.90;;;;;;5093217;28;20236;-68
2021/03/16 05:46:16;;;;;;;14.53;3.23;;;5.70;99.90;;;;;;5093384;28;20164;-69
2021/03/16 05:48:48;;;;;;;8.50;3.20;;;5.80;99.90;;;;;;5092980;28;20194;-69
2021/03/16 05:51:14;;;;;;;13.25;3.55;;;6.00;99.90;;;;;;5093451;28;20416;-69
2021/03/16 05:53:39;;;;;;;15.47;3.77;;;6.20;99.90;;;;;;5093407;28;20243;-69
2021/03/16 05:56:06;;;;;;;16.60;3.77;;;6.10;99.90;;;;;;5093114;28;20215;-68
2021/03/16 05:58:32;;;;;;;19.60;3.50;;;5.90;99.90;;;;;;5091515;28;20598;-69
2021/03/16 06:00:57;;;;;;;15.07;3.37;;;5.80;99.90;;;;;;5092756;28;20173;-69
2021/03/16 06:03:23;;;;;;;10.87;3.33;;;6.00;99.90;;;;;;5093129;28;20406;-69
2021/03/16 06:05:49;;;;;;;18.07;4.03;;;5.90;99.90;;;;;;5093127;28;20167;-69
2021/03/16 06:08:15;;;;;;;12.68;4.07;;;6.00;99.90;;;;;;5092687;28;20634;-69
2021/03/16 06:10:43;;;;;;;11.57;2.97;;;6.00;99.90;;;;;;5093139;28;20195;-69
2021/03/16 06:13:13;;;;;;;19.23;5.55;;;6.10;99.90;;;;;;5092847;28;20184;-69
2021/03/16 06:15:42;;;;;;;12.65;3.45;;;5.90;99.90;;;;;;5092986;28;20163;-69
2021/03/16 06:18:10;;;;;;;15.15;3.60;;;5.80;99.90;;;;;;5093215;28;20182;-69
2021/03/16 06:20:36;;;;;;;14.60;5.22;;;5.70;99.90;;;;;;5092824;28;20174;-68
2021/03/16 06:23:07;;;;;;;14.35;3.88;;;5.80;99.90;;;;;;5092858;28;20233;-69
2021/03/16 06:25:39;;;;;;;11.07;2.88;;;6.10;99.90;;;;;;5092692;28;20582;-69
2021/03/16 06:28:07;;;;;;;10.00;2.75;;;6.10;99.90;;;;;;5092466;28;20183;-69
2021/03/16 06:30:33;;;;;;;14.63;3.00;;;6.10;99.90;;;;;;5092605;28;20168;-69
2021/03/16 06:32:59;;;;;;;20.20;3.00;;;6.00;99.90;;;;;;5090979;28;20184;-68
2021/03/16 06:35:25;;;;;;;10.65;2.80;;;6.20;99.90;;;;;;5092521;28;20437;-69
2021/03/16 06:38:01;;;;;;;23.17;3.72;;;5.90;67.00;;;;;;5092160;28;20195;-69
2021/03/16 06:40:30;;;;;;;11.00;2.72;;;6.10;99.90;;;;;;5092407;28;20164;-68
2021/03/16 06:43:10;;;;;;;11.88;3.10;;;6.00;99.90;;;;;;5092517;28;20278;-68
2021/03/16 06:45:41;;;;;;;10.98;3.63;;;6.20;99.90;;;;;;5092810;28;20187;-69
2021/03/16 06:48:17;;;;;;;18.00;3.30;;;6.20;99.90;;;;;;5092562;28;20594;-69
2021/03/16 06:50:44;;;;;;;16.83;3.25;;;5.90;99.50;;;;;;5092560;28;20167;-68
2021/03/16 06:53:13;;;;;;;11.95;3.20;;;5.80;99.90;;;;;;5092201;28;20274;-68
2021/03/16 06:55:53;;;;;;;20.95;3.10;;;5.80;99.90;;;;;;5092491;28;20166;-69
2021/03/16 06:58:25;;;;;;;12.60;3.38;;;5.90;99.90;;;;;;5092455;28;20520;-69
2021/03/16 07:01:10;;;;;;;10.88;3.13;;;5.80;99.90;;;;;;5095614;28;20163;-69
2021/03/16 07:03:39;;;;;;;8.50;2.80;;;5.90;99.90;;;;;;5096498;28;20187;-69
2021/03/16 07:06:08;;;;;;;9.30;2.53;;;6.30;99.90;;;;;;5095883;28;20195;-68
2021/03/16 07:08:34;;;;;;;9.95;3.00;;;6.50;99.90;;;;;;5096307;28;20202;-69
2021/03/16 07:11:07;;;;;;;15.07;3.70;;;6.40;62.10;;;;;;5096073;28;20187;-69
2021/03/16 07:13:33;;;;;;;15.55;3.88;;;6.40;95.50;;;;;;5095959;28;20195;-68
2021/03/16 07:16:01;;;;;;;17.92;3.63;;;6.30;74.50;;;;;;5095722;28;20337;-69
2021/03/16 07:18:28;;;;;;;10.05;4.22;;;6.50;99.90;;;;;;5095751;28;20175;-69
2021/03/16 07:20:57;;;;;;;13.75;2.90;;;6.50;14.50;;;;;;5094324;28;20171;-69
2021/03/16 07:23:28;;;;;;;12.02;3.17;;;6.40;75.50;;;;;;5095522;28;20241;-69
2021/03/16 07:25:55;;;;;;;14.63;3.25;;;6.50;90.50;;;;;;5095545;28;20201;-68
2021/03/16 07:28:20;;;;;;;9.05;3.65;;;6.10;99.90;;;;;;5095390;28;20240;-69
2021/03/16 07:30:47;;;;;;;17.23;3.77;;;6.40;34.70;;;;;;5095211;28;20591;-69
2021/03/16 07:33:15;;;;;;;13.95;5.50;;;6.30;18.70;;;;;;5095440;28;20589;-68
2021/03/16 07:35:42;;;;;;;11.38;5.85;;;6.50;38.90;;;;;;5095277;28;20540;-67
2021/03/16 07:38:09;;;;;;;14.15;4.53;;;6.60;56.40;;;;;;5095634;28;20213;-68
2021/03/16 07:40:38;;;;;;;17.88;3.70;;;6.50;93.10;;;;;;5095540;28;20167;-68
2021/03/16 07:43:12;;;;;;;12.00;3.90;;;6.40;99.90;;;;;;5095074;28;20180;-68
2021/03/16 07:45:39;;;;;;;16.35;4.05;;;6.70;99.90;;;;;;5095426;28;20241;-69
2021/03/16 07:48:19;;;;;;;16.67;4.55;;;6.40;99.90;;;;;;5094891;28;20191;-68
2021/03/16 07:50:46;;;;;;;10.85;2.95;;;6.60;99.90;;;;;;5095240;28;20160;-69
2021/03/16 07:53:23;;;;;;;21.38;4.13;;;6.30;99.90;;;;;;5095000;28;20187;-69
2021/03/16 07:55:48;;;;;;;12.38;4.10;;;6.50;99.90;;;;;;5095299;28;20143;-68
2021/03/16 07:58:15;;;;;;;12.83;3.77;;;6.80;99.90;;;;;;5094929;28;20247;-69
2021/03/16 08:00:41;;;;;;;14.82;2.80;;;7.00;99.90;;;;;;5094900;28;20221;-69
2021/03/16 08:03:06;;;;;;;13.03;3.13;;;7.10;18.50;;;;;;5094787;28;20183;-69
2021/03/16 08:05:44;;;;;;;17.03;3.70;;;7.00;81.40;;;;;;5094983;28;20171;-69
2021/03/16 08:08:17;;;;;;;14.63;2.88;;;7.00;16.70;;;;;;5094731;28;20272;-69
2021/03/16 08:10:43;;;;;;;10.15;2.75;;;6.50;90.90;;;;;;5094526;28;20537;-68
2021/03/16 08:13:14;;;;;;;14.40;2.97;;;6.40;71.00;;;;;;5094497;28;20190;-69
2021/03/16 08:15:50;;;;;;;10.88;3.53;;;6.40;99.90;;;;;;5094801;28;20664;-69
2021/03/16 08:18:28;;;;;;;20.10;5.03;;;6.60;42.40;;;;;;5094713;28;20167;-69
2021/03/16 08:21:06;;;;;;;16.25;3.88;;;6.80;1.00;;;;;;5094899;28;20527;-69
2021/03/16 08:23:32;;;;;;;10.02;2.72;;;6.70;1.00;;;;;;5094194;28;20200;-69
2021/03/16 08:26:00;;;;;;;14.68;4.07;;;6.80;1.00;;;;;;5094787;28;20514;-70
2021/03/16 08:28:26;;;;;;;9.30;3.22;;;7.20;1.00;;;;;;5094262;28;20229;-69
2021/03/16 08:30:52;;;;;;;13.25;3.90;;;6.60;1.00;;;;;;5094675;28;20186;-69
2021/03/16 08:33:19;;;;;;;11.98;3.45;;;6.60;1.00;;;;;;5094730;28;20646;-70
2021/03/16 08:35:49;;;;;;;17.27;3.95;;;6.80;1.00;;;;;;5094802;28;20205;-69
2021/03/16 08:38:29;;;;;;;11.73;3.40;;;6.70;1.00;;;;;;5094328;28;20480;-69
2021/03/16 08:41:10;;;;;;;13.77;4.18;;;7.00;1.00;;;;;;5093790;28;20171;-69
2021/03/16 08:43:37;;;;;;;14.77;3.90;;;6.80;1.00;;;;;;5093235;28;20167;-70
2021/03/16 08:46:04;;;;;;;35.42;15.52;;;6.70;1.00;;;;;;5094063;28;20175;-69
2021/03/16 08:48:31;;;;;;;18.73;3.42;;;6.80;1.00;;;;;;5094178;28;20688;-69
2021/03/16 08:50:58;;;;;;;9.32;2.95;;;6.90;1.00;;;;;;5093907;28;20734;-70
2021/03/16 08:53:23;;;;;;;19.23;3.45;;;6.90;1.00;;;;;;5093740;28;20305;-70
2021/03/16 08:55:51;;;;;;;15.00;2.53;;;6.90;1.00;;;;;;5093624;28;20199;-70
2021/03/16 08:58:17;;;;;;;10.57;2.83;;;6.90;1.00;;;;;;5093524;28;20463;-70
2021/03/16 09:00:43;;;;;;;8.73;3.15;;;6.90;1.00;;;;;;5093524;28;20221;-69
2021/03/16 09:03:09;;;;;;;9.40;2.97;;;6.90;1.00;;;;;;5093778;28;20213;-69
2021/03/16 09:05:35;;;;;;;13.80;3.87;;;7.20;1.00;;;;;;5093562;28;20509;-69
2021/03/16 09:08:00;;;;;;;11.93;3.63;;;7.10;1.00;;;;;;5093517;28;20467;-70
2021/03/16 09:10:27;;;;;;;10.43;2.60;;;7.10;1.00;;;;;;5092131;28;20168;-69
2021/03/16 09:12:54;;;;;;;12.13;3.60;;;7.00;1.00;;;;;;5093247;28;20683;-70
2021/03/16 09:15:19;;;;;;;9.82;3.08;;;7.00;1.00;;;;;;5093540;28;20207;-68
2021/03/16 09:17:47;;;;;;;5.80;2.50;;;7.10;1.00;;;;;;5093450;28;20612;-69
2021/03/16 09:20:27;;;;;;;7.28;2.65;;;6.90;1.00;;;;;;5093491;28;20224;-69
2021/03/16 09:22:55;;;;;;;4.82;2.38;;;6.70;1.00;;;;;;5092905;28;20552;-70
2021/03/16 09:25:34;;;;;;;8.45;3.25;;;6.60;1.00;;;;;;5093129;28;20171;-69
2021/03/16 09:28:02;;;;;;;5.45;2.33;;;6.20;1.00;;;;;;5093158;28;20195;-69
2021/03/16 09:30:42;;;;;;;5.80;2.72;;;6.40;92.50;;;;;;5092979;28;20160;-69
2021/03/16 09:33:10;;;;;;;6.40;2.70;;;6.40;65.70;;;;;;5093168;28;20186;-70
2021/03/16 09:35:36;;;;;;;9.73;2.83;;;6.40;95.60;;;;;;5093086;28;20178;-68
2021/03/16 09:38:07;;;;;;;8.43;2.97;;;6.40;99.90;;;;;;5093434;28;20175;-70
2021/03/16 09:40:34;;;;;;;12.43;3.28;;;6.40;99.90;;;;;;5093355;28;20520;-69
2021/03/16 09:43:00;;;;;;;8.15;3.55;;;6.40;99.90;;;;;;5094367;28;20187;-69
2021/03/16 09:45:31;;;;;;;10.63;4.75;;;6.50;99.90;;;;;;5092832;28;20257;-70
2021/03/16 09:48:00;;;;;;;12.05;3.40;;;6.40;99.90;;;;;;5093093;28;20198;-70
2021/03/16 09:50:37;;;;;;;8.30;3.42;;;6.50;99.90;;;;;;5093146;28;20167;-70
2021/03/16 09:53:07;;;;;;;15.50;3.58;;;6.70;99.90;;;;;;5092972;28;20183;-69
2021/03/16 09:55:33;;;;;;;18.15;5.53;;;7.00;99.90;;;;;;5092901;28;20187;-70
2021/03/16 09:58:00;;;;;;;17.33;5.03;;;7.00;99.90;;;;;;5093398;28;20183;-69
2021/03/16 10:00:27;;;;;;;10.85;4.45;;;7.50;99.90;;;;;;5092809;28;20182;-68
2021/03/16 10:03:03;;;;;;;10.85;3.85;;;7.80;99.90;;;;;;5092962;28;20225;-67
2021/03/16 10:05:29;;;;;;;9.18;3.60;;;8.00;99.90;;;;;;5092682;28;20182;-69
2021/03/16 10:07:55;;;;;;;12.23;3.87;;;8.50;1.00;;;;;;5092437;28;20676;-66
2021/03/16 10:10:22;;;;;;;12.63;4.40;;;8.50;1.00;;;;;;5092757;28;20171;-68
2021/03/16 10:12:54;;;;;;;9.15;3.58;;;8.20;98.40;;;;;;5093010;28;20180;-69
2021/03/16 10:15:28;;;;;;;11.52;2.92;;;8.30;1.00;;;;;;5093586;28;20255;-69
2021/03/16 10:17:56;;;;;;;8.82;4.07;;;8.00;1.00;;;;;;5093551;28;20164;-69
2021/03/16 10:20:28;;;;;;;10.80;3.65;;;8.30;1.00;;;;;;5092750;28;20594;-70
2021/03/16 10:22:57;;;;;;;13.13;2.55;;;8.70;1.00;;;;;;5092642;28;20230;-69
2021/03/16 10:25:25;;;;;;;11.65;4.05;;;8.60;1.00;;;;;;5092334;28;20565;-68
2021/03/16 10:28:02;;;;;;;7.45;3.83;;;8.60;1.00;;;;;;5092875;28;20233;-70
2021/03/16 10:30:43;;;;;;;14.48;4.18;;;8.80;1.00;;;;;;5093153;28;20612;-69
2021/03/16 10:33:10;;;;;;;8.02;3.22;;;8.60;1.00;;;;;;5093482;28;20187;-70
2021/03/16 10:35:37;;;;;;;6.72;3.75;;;8.40;1.00;;;;;;5095698;28;20168;-69
2021/03/16 10:38:03;;;;;;;20.90;4.40;;;8.50;1.00;;;;;;5096703;28;20258;-68
2021/03/16 10:40:30;;;;;;;9.52;4.10;;;9.00;1.00;;;;;;5096639;28;20171;-68
2021/03/16 10:42:56;;;;;;;8.27;3.70;;;9.30;1.00;;;;;;5096463;28;20552;-68
2021/03/16 10:45:21;;;;;;;9.20;3.80;;;8.80;1.00;;;;;;5096593;28;20168;-69
2021/03/16 10:47:48;;;;;;;9.03;3.70;;;8.40;1.00;;;;;;5096291;28;20187;-68
2021/03/16 10:50:14;;;;;;;8.90;2.92;;;8.80;1.00;;;;;;5096308;28;20257;-69
2021/03/16 10:52:40;;;;;;;17.08;3.80;;;8.60;1.00;;;;;;5094818;28;20183;-68
2021/03/16 10:55:06;;;;;;;26.23;4.68;;;9.00;1.00;;;;;;5096097;28;20191;-68
2021/03/16 10:57:33;;;;;;;12.02;3.08;;;9.30;1.00;;;;;;5096878;28;20195;-69
2021/03/16 10:59:59;;;;;;;8.95;3.42;;;9.20;1.00;;;;;;5096304;28;20181;-69
2021/03/16 11:02:24;;;;;;;7.45;2.53;;;9.20;1.00;;;;;;5095950;28;20194;-68
2021/03/16 11:04:50;;;;;;;8.43;3.60;;;9.20;1.00;;;;;;5095980;28;20641;-68
2021/03/16 11:07:17;;;;;;;10.20;3.10;;;9.30;1.00;;;;;;5095832;28;20204;-67
2021/03/16 11:09:42;;;;;;;7.72;3.67;;;9.40;1.00;;;;;;5095936;28;20760;-68
2021/03/16 11:12:08;;;;;;;9.47;3.60;;;9.60;1.00;;;;;;5096085;28;20191;-67
2021/03/16 11:14:34;;;;;;;7.38;3.60;;;9.60;1.00;;;;;;5095803;28;20164;-68
2021/03/16 11:16:59;;;;;;;9.73;3.73;;;9.20;1.00;;;;;;5095714;28;20258;-67
2021/03/16 11:19:25;;;;;;;9.20;3.07;;;9.00;1.00;;;;;;5096016;28;20195;-69
2021/03/16 11:21:51;;;;;;;7.37;3.33;;;8.90;1.00;;;;;;5096269;28;20531;-69
2021/03/16 11:24:18;;;;;;;7.37;2.53;;;9.00;1.00;;;;;;5096315;28;20176;-70
2021/03/16 11:26:44;;;;;;;9.75;3.85;;;9.20;1.00;;;;;;5097704;28;20169;-69
2021/03/16 11:29:09;;;;;;;5.23;2.63;;;9.00;1.00;;;;;;5097273;28;20282;-69
2021/03/16 11:31:35;;;;;;;4.60;2.50;;;8.60;1.00;;;;;;5096715;28;20188;-68
2021/03/16 11:34:00;;;;;;;4.50;1.70;;;8.70;1.00;;;;;;5095932;28;20175;-69
2021/03/16 11:36:26;;;;;;;6.70;2.10;;;8.40;1.00;;;;;;5096009;28;20171;-68
2021/03/16 11:38:51;;;;;;;5.57;2.10;;;8.50;1.00;;;;;;5095104;28;20180;-67
2021/03/16 11:41:17;;;;;;;3.90;1.60;;;8.30;1.00;;;;;;5095150;28;20253;-67
2021/03/16 11:43:43;;;;;;;6.20;1.97;;;8.50;1.00;;;;;;5094955;28;20176;-67
2021/03/16 11:46:08;;;;;;;4.00;1.90;;;8.40;1.00;;;;;;5094620;28;20250;-67
2021/03/16 11:48:34;;;;;;;3.53;1.63;;;8.60;1.00;;;;;;5094860;28;20286;-68
2021/03/16 11:51:00;;;;;;;4.30;1.73;;;9.00;1.00;;;;;;5095001;28;20172;-69
2021/03/16 11:53:25;;;;;;;6.53;1.50;;;9.60;1.00;;;;;;5095042;28;20190;-69
2021/03/16 11:55:51;;;;;;;4.33;1.37;;;9.80;1.00;;;;;;5095233;28;20167;-68
2021/03/16 11:58:16;;;;;;;2.50;1.50;;;9.70;1.00;;;;;;5095645;28;20172;-68
2021/03/16 12:00:43;;;;;;;4.30;1.70;;;9.90;1.00;;;;;;5095216;28;20645;-68
2021/03/16 12:03:08;;;;;;;5.43;1.60;;;10.10;1.00;;;;;;5095188;28;20187;-69
2021/03/16 12:05:34;;;;;;;8.87;1.80;;;10.20;1.00;;;;;;5094968;28;20397;-69
2021/03/16 12:08:00;;;;;;;5.23;1.50;;;10.60;1.00;;;;;;5095000;28;20203;-69
2021/03/16 12:10:26;;;;;;;8.00;2.20;;;10.70;1.00;;;;;;5095251;28;20164;-68
2021/03/16 12:12:51;;;;;;;8.67;1.90;;;10.80;1.00;;;;;;5094920;28;20436;-70
2021/03/16 12:15:19;;;;;;;3.37;2.07;;;11.30;1.00;;;;;;5094648;28;20176;-70
2021/03/16 12:17:45;;;;;;;5.70;1.90;;;11.10;1.00;;;;;;5094705;28;20171;-69
2021/03/16 12:20:12;;;;;;;7.57;2.40;;;11.40;1.00;;;;;;5094607;28;21033;-69
2021/03/16 12:22:38;;;;;;;7.93;2.00;;;11.20;1.00;;;;;;5094288;28;20433;-69
2021/03/16 12:25:05;;;;;;;10.77;2.17;;;11.20;1.00;;;;;;5093730;28;20409;-70
2021/03/16 12:27:31;;;;;;;6.07;1.90;;;10.10;1.00;;;;;;5094486;28;20236;-69
2021/03/16 12:29:57;;;;;;;7.67;1.97;;;9.70;1.00;;;;;;5094160;28;20496;-70
2021/03/16 12:32:22;;;;;;;6.40;1.70;;;9.10;1.00;;;;;;5094168;28;20797;-69
2021/03/16 12:34:50;;;;;;;5.50;1.80;;;8.90;1.00;;;;;;5094413;28;20168;-69
2021/03/16 12:37:16;;;;;;;3.78;1.85;;;9.00;1.00;;;;;;5094877;28;20184;-69
2021/03/16 12:39:42;;;;;;;10.10;2.20;;;9.20;1.00;;;;;;5094016;28;20222;-70
2021/03/16 12:42:08;;;;;;;5.83;2.03;;;8.90;1.00;;;;;;5094102;28;20460;-70
2021/03/16 12:44:33;;;;;;;7.43;3.10;;;8.70;1.00;;;;;;5094232;28;20172;-69
2021/03/16 12:47:01;;;;;;;9.13;3.33;;;8.60;1.00;;;;;;5093560;28;20466;-69
2021/03/16 12:49:26;;;;;;;7.70;3.55;;;8.90;1.00;;;;;;5093460;28;20188;-68
2021/03/16 12:51:52;;;;;;;9.00;3.53;;;9.10;1.00;;;;;;5093414;28;20183;-69
2021/03/16 12:54:18;;;;;;;4.50;2.70;;;9.30;1.00;;;;;;5093572;28;20163;-68
2021/03/16 12:56:43;;;;;;;4.63;2.27;;;9.50;1.00;;;;;;5092787;28;20870;-69
2021/03/16 12:59:09;;;;;;;2.80;2.00;;;10.50;1.00;;;;;;5094026;28;20193;-70